sensor_id;sensor_type;location;lat;lon;timestamp;P1;durP1;ratioP1;P2;durP2;ratioP2
22922;SDS011;11627;51.322;22.816;2023-05-10T00:00:34;9.88;;;4.50;;
22922;SDS011;11627;51.322;22.816;2023-05-10T00:03:01;10.38;;;4.72;;
22922;SDS011;11627;51.322;22.816;2023-05-10T00:05:32;10.07;;;4.03;;
22922;SDS011;11627;51.322;22.816;2023-05-10T00:07:59;7.70;;;4.32;;
22922;SDS011;11627;51.322;22.816;2023-05-10T00:10:25;9.13;;;4.43;;
22922;SDS011;11627;51.322;22.816;2023-05-10T00:12:50;8.80;;;4.25;;
22922;SDS011;11627;51.322;22.816;2023-05-10T00:15:16;7.20;;;4.13;;
22922;SDS011;11627;51.322;22.816;2023-05-10T00:17:42;9.50;;;4.47;;
22922;SDS011;11627;51.322;22.816;2023-05-10T00:20:08;7.38;;;4.22;;
22922;SDS011;11627;51.322;22.816;2023-05-10T00:22:34;7.72;;;4.10;;
22922;SDS011;11627;51.322;22.816;2023-05-10T00:25:00;6.50;;;3.70;;
22922;SDS011;11627;51.322;22.816;2023-05-10T00:27:29;10.45;;;4.85;;
22922;SDS011;11627;51.322;22.816;2023-05-10T00:29:54;6.75;;;3.75;;
22922;SDS011;11627;51.322;22.816;2023-05-10T00:32:23;8.50;;;3.67;;
22922;SDS011;11627;51.322;22.816;2023-05-10T00:34:50;8.27;;;3.60;;
22922;SDS011;11627;51.322;22.816;2023-05-10T00:37:17;7.47;;;3.92;;
22922;SDS011;11627;51.322;22.816;2023-05-10T00:39:44;7.68;;;3.88;;
22922;SDS011;11627;51.322;22.816;2023-05-10T00:42:11;7.75;;;3.58;;
22922;SDS011;11627;51.322;22.816;2023-05-10T00:44:39;7.47;;;3.90;;
22922;SDS011;11627;51.322;22.816;2023-05-10T00:47:06;7.57;;;3.85;;
22922;SDS011;11627;51.322;22.816;2023-05-10T00:49:33;7.05;;;3.65;;
22922;SDS011;11627;51.322;22.816;2023-05-10T00:52:00;6.93;;;3.60;;
22922;SDS011;11627;51.322;22.816;2023-05-10T00:54:28;5.07;;;3.40;;
22922;SDS011;11627;51.322;22.816;2023-05-10T00:56:55;7.13;;;3.70;;
22922;SDS011;11627;51.322;22.816;2023-05-10T00:59:23;5.55;;;3.30;;
22922;SDS011;11627;51.322;22.816;2023-05-10T01:01:49;8.23;;;3.13;;
22922;SDS011;11627;51.322;22.816;2023-05-10T01:04:16;6.10;;;3.30;;
22922;SDS011;11627;51.322;22.816;2023-05-10T01:06:43;4.88;;;3.00;;
22922;SDS011;11627;51.322;22.816;2023-05-10T01:09:14;5.55;;;3.40;;
22922;SDS011;11627;51.322;22.816;2023-05-10T01:11:43;10.45;;;3.45;;
22922;SDS011;11627;51.322;22.816;2023-05-10T01:14:10;8.32;;;3.50;;
22922;SDS011;11627;51.322;22.816;2023-05-10T01:16:37;6.70;;;3.20;;
22922;SDS011;11627;51.322;22.816;2023-05-10T01:19:29;5.70;;;3.35;;
22922;SDS011;11627;51.322;22.816;2023-05-10T01:22:37;7.05;;;2.97;;
22922;SDS011;11627;51.322;22.816;2023-05-10T01:34:16;56.95;;;19.90;;
22922;SDS011;11627;51.322;22.816;2023-05-10T01:36:34;51.85;;;18.48;;
22922;SDS011;11627;51.322;22.816;2023-05-10T01:39:11;62.88;;;19.00;;
22922;SDS011;11627;51.322;22.816;2023-05-10T01:47:40;203.63;;;54.25;;
22922;SDS011;11627;51.322;22.816;2023-05-10T01:50:27;212.60;;;56.72;;
22922;SDS011;11627;51.322;22.816;2023-05-10T01:52:58;208.75;;;52.28;;
22922;SDS011;11627;51.322;22.816;2023-05-10T01:55:28;143.38;;;37.90;;
22922;SDS011;11627;51.322;22.816;2023-05-10T01:58:01;102.65;;;29.88;;
22922;SDS011;11627;51.322;22.816;2023-05-10T02:00:36;125.28;;;34.83;;
22922;SDS011;11627;51.322;22.816;2023-05-10T02:03:09;123.30;;;35.95;;
22922;SDS011;11627;51.322;22.816;2023-05-10T02:05:39;92.65;;;29.17;;
22922;SDS011;11627;51.322;22.816;2023-05-10T02:08:10;74.43;;;23.27;;
22922;SDS011;11627;51.322;22.816;2023-05-10T02:10:39;83.93;;;24.30;;
22922;SDS011;11627;51.322;22.816;2023-05-10T02:13:06;135.20;;;33.20;;
22922;SDS011;11627;51.322;22.816;2023-05-10T02:15:34;136.60;;;32.22;;
22922;SDS011;11627;51.322;22.816;2023-05-10T02:18:03;123.28;;;33.92;;
22922;SDS011;11627;51.322;22.816;2023-05-10T02:20:32;139.15;;;32.15;;
22922;SDS011;11627;51.322;22.816;2023-05-10T02:23:04;128.52;;;31.23;;
22922;SDS011;11627;51.322;22.816;2023-05-10T02:25:34;129.98;;;32.55;;
22922;SDS011;11627;51.322;22.816;2023-05-10T02:28:05;116.40;;;27.98;;
22922;SDS011;11627;51.322;22.816;2023-05-10T02:30:33;101.50;;;23.80;;
22922;SDS011;11627;51.322;22.816;2023-05-10T02:33:05;67.35;;;18.35;;
22922;SDS011;11627;51.322;22.816;2023-05-10T02:35:35;55.95;;;15.63;;
22922;SDS011;11627;51.322;22.816;2023-05-10T02:38:04;43.83;;;12.30;;
22922;SDS011;11627;51.322;22.816;2023-05-10T02:40:33;46.78;;;12.35;;
22922;SDS011;11627;51.322;22.816;2023-05-10T02:43:01;50.42;;;12.85;;
22922;SDS011;11627;51.322;22.816;2023-05-10T02:45:31;43.85;;;11.85;;
22922;SDS011;11627;51.322;22.816;2023-05-10T02:48:00;50.72;;;13.15;;
22922;SDS011;11627;51.322;22.816;2023-05-10T02:50:27;55.50;;;14.23;;
22922;SDS011;11627;51.322;22.816;2023-05-10T02:52:59;63.50;;;15.88;;
22922;SDS011;11627;51.322;22.816;2023-05-10T02:55:32;52.67;;;14.57;;
22922;SDS011;11627;51.322;22.816;2023-05-10T02:58:03;41.75;;;11.95;;
22922;SDS011;11627;51.322;22.816;2023-05-10T03:00:29;43.22;;;12.45;;
22922;SDS011;11627;51.322;22.816;2023-05-10T03:02:55;48.05;;;11.00;;
22922;SDS011;11627;51.322;22.816;2023-05-10T03:05:21;39.15;;;10.85;;
22922;SDS011;11627;51.322;22.816;2023-05-10T03:07:49;39.15;;;9.57;;
22922;SDS011;11627;51.322;22.816;2023-05-10T03:10:20;35.38;;;9.77;;
22922;SDS011;11627;51.322;22.816;2023-05-10T03:18:28;29.30;;;7.85;;
22922;SDS011;11627;51.322;22.816;2023-05-10T03:21:04;26.52;;;7.50;;
22922;SDS011;11627;51.322;22.816;2023-05-10T03:23:44;19.45;;;6.30;;
22922;SDS011;11627;51.322;22.816;2023-05-10T03:26:26;20.88;;;6.10;;
22922;SDS011;11627;51.322;22.816;2023-05-10T03:28:53;23.15;;;5.80;;
22922;SDS011;11627;51.322;22.816;2023-05-10T03:31:22;15.70;;;5.63;;
22922;SDS011;11627;51.322;22.816;2023-05-10T03:33:51;24.42;;;6.05;;
22922;SDS011;11627;51.322;22.816;2023-05-10T03:36:19;25.10;;;6.53;;
22922;SDS011;11627;51.322;22.816;2023-05-10T03:38:44;29.77;;;7.43;;
22922;SDS011;11627;51.322;22.816;2023-05-10T03:41:13;28.60;;;7.88;;
22922;SDS011;11627;51.322;22.816;2023-05-10T03:43:39;24.30;;;7.15;;
22922;SDS011;11627;51.322;22.816;2023-05-10T03:46:05;30.73;;;8.55;;
22922;SDS011;11627;51.322;22.816;2023-05-10T03:48:35;28.48;;;9.18;;
22922;SDS011;11627;51.322;22.816;2023-05-10T03:51:04;21.85;;;7.18;;
22922;SDS011;11627;51.322;22.816;2023-05-10T03:53:31;20.48;;;7.03;;
22922;SDS011;11627;51.322;22.816;2023-05-10T03:55:58;14.57;;;5.38;;
22922;SDS011;11627;51.322;22.816;2023-05-10T03:58:25;11.48;;;5.28;;
22922;SDS011;11627;51.322;22.816;2023-05-10T04:00:51;15.63;;;5.20;;
22922;SDS011;11627;51.322;22.816;2023-05-10T04:03:18;16.05;;;5.20;;
22922;SDS011;11627;51.322;22.816;2023-05-10T04:05:46;13.38;;;4.90;;
22922;SDS011;11627;51.322;22.816;2023-05-10T04:08:13;19.42;;;5.13;;
22922;SDS011;11627;51.322;22.816;2023-05-10T04:10:43;10.60;;;4.47;;
22922;SDS011;11627;51.322;22.816;2023-05-10T04:13:10;10.02;;;4.30;;
22922;SDS011;11627;51.322;22.816;2023-05-10T04:15:37;10.40;;;4.55;;
22922;SDS011;11627;51.322;22.816;2023-05-10T04:18:02;14.57;;;4.38;;
22922;SDS011;11627;51.322;22.816;2023-05-10T04:20:31;10.65;;;4.18;;
22922;SDS011;11627;51.322;22.816;2023-05-10T04:23:01;14.02;;;4.80;;
22922;SDS011;11627;51.322;22.816;2023-05-10T04:25:26;16.75;;;4.32;;
22922;SDS011;11627;51.322;22.816;2023-05-10T04:27:55;12.13;;;4.80;;
22922;SDS011;11627;51.322;22.816;2023-05-10T04:30:23;11.98;;;4.32;;
22922;SDS011;11627;51.322;22.816;2023-05-10T04:32:49;11.88;;;4.18;;
22922;SDS011;11627;51.322;22.816;2023-05-10T04:35:14;10.10;;;4.22;;
22922;SDS011;11627;51.322;22.816;2023-05-10T04:37:41;12.82;;;4.10;;
22922;SDS011;11627;51.322;22.816;2023-05-10T04:40:08;13.75;;;5.13;;
22922;SDS011;11627;51.322;22.816;2023-05-10T04:42:35;16.42;;;5.85;;
22922;SDS011;11627;51.322;22.816;2023-05-10T04:45:03;13.73;;;5.13;;
22922;SDS011;11627;51.322;22.816;2023-05-10T04:47:29;18.88;;;4.90;;
22922;SDS011;11627;51.322;22.816;2023-05-10T04:49:59;14.68;;;5.22;;
22922;SDS011;11627;51.322;22.816;2023-05-10T04:52:24;9.25;;;3.80;;
22922;SDS011;11627;51.322;22.816;2023-05-10T04:54:51;14.43;;;3.85;;
22922;SDS011;11627;51.322;22.816;2023-05-10T04:57:17;6.78;;;3.30;;
22922;SDS011;11627;51.322;22.816;2023-05-10T04:59:43;6.75;;;3.70;;
22922;SDS011;11627;51.322;22.816;2023-05-10T05:02:08;8.02;;;3.50;;
22922;SDS011;11627;51.322;22.816;2023-05-10T05:04:34;6.78;;;3.50;;
22922;SDS011;11627;51.322;22.816;2023-05-10T05:07:01;10.27;;;3.78;;
22922;SDS011;11627;51.322;22.816;2023-05-10T05:09:28;8.00;;;3.17;;
22922;SDS011;11627;51.322;22.816;2023-05-10T05:11:54;9.82;;;3.20;;
22922;SDS011;11627;51.322;22.816;2023-05-10T05:14:20;5.90;;;3.47;;
22922;SDS011;11627;51.322;22.816;2023-05-10T05:16:47;5.53;;;3.30;;
22922;SDS011;11627;51.322;22.816;2023-05-10T05:19:12;10.20;;;3.50;;
22922;SDS011;11627;51.322;22.816;2023-05-10T05:21:38;4.75;;;3.38;;
22922;SDS011;11627;51.322;22.816;2023-05-10T05:24:06;9.52;;;3.50;;
22922;SDS011;11627;51.322;22.816;2023-05-10T05:26:37;10.60;;;3.42;;
22922;SDS011;11627;51.322;22.816;2023-05-10T05:29:06;8.63;;;3.92;;
22922;SDS011;11627;51.322;22.816;2023-05-10T05:31:34;5.43;;;3.40;;
22922;SDS011;11627;51.322;22.816;2023-05-10T05:34:02;6.78;;;3.33;;
22922;SDS011;11627;51.322;22.816;2023-05-10T05:36:30;7.35;;;3.53;;
22922;SDS011;11627;51.322;22.816;2023-05-10T05:39:02;7.28;;;2.78;;
22922;SDS011;11627;51.322;22.816;2023-05-10T05:41:29;13.20;;;3.42;;
22922;SDS011;11627;51.322;22.816;2023-05-10T05:43:56;6.20;;;3.10;;
22922;SDS011;11627;51.322;22.816;2023-05-10T05:46:22;11.07;;;3.65;;
22922;SDS011;11627;51.322;22.816;2023-05-10T05:48:48;13.18;;;3.70;;
22922;SDS011;11627;51.322;22.816;2023-05-10T05:51:17;7.28;;;3.30;;
22922;SDS011;11627;51.322;22.816;2023-05-10T05:53:46;7.32;;;2.97;;
22922;SDS011;11627;51.322;22.816;2023-05-10T05:56:12;10.60;;;3.40;;
22922;SDS011;11627;51.322;22.816;2023-05-10T05:58:38;5.10;;;2.90;;
22922;SDS011;11627;51.322;22.816;2023-05-10T06:01:03;8.10;;;3.25;;
22922;SDS011;11627;51.322;22.816;2023-05-10T06:03:30;6.72;;;3.65;;
22922;SDS011;11627;51.322;22.816;2023-05-10T06:05:56;7.57;;;3.53;;
22922;SDS011;11627;51.322;22.816;2023-05-10T06:08:23;7.18;;;3.67;;
22922;SDS011;11627;51.322;22.816;2023-05-10T06:10:52;7.82;;;3.78;;
22922;SDS011;11627;51.322;22.816;2023-05-10T06:13:21;5.47;;;3.30;;
22922;SDS011;11627;51.322;22.816;2023-05-10T06:15:47;6.93;;;3.78;;
22922;SDS011;11627;51.322;22.816;2023-05-10T06:18:15;6.45;;;3.88;;
22922;SDS011;11627;51.322;22.816;2023-05-10T06:20:41;6.93;;;3.38;;
22922;SDS011;11627;51.322;22.816;2023-05-10T06:23:09;9.43;;;3.40;;
22922;SDS011;11627;51.322;22.816;2023-05-10T06:25:34;8.02;;;3.70;;
22922;SDS011;11627;51.322;22.816;2023-05-10T06:28:01;8.77;;;3.70;;
22922;SDS011;11627;51.322;22.816;2023-05-10T06:30:29;12.57;;;3.78;;
22922;SDS011;11627;51.322;22.816;2023-05-10T06:32:55;5.90;;;3.28;;
22922;SDS011;11627;51.322;22.816;2023-05-10T06:35:21;8.48;;;3.45;;
22922;SDS011;11627;51.322;22.816;2023-05-10T06:37:49;8.52;;;3.83;;
22922;SDS011;11627;51.322;22.816;2023-05-10T06:40:16;7.07;;;3.70;;
22922;SDS011;11627;51.322;22.816;2023-05-10T06:42:42;7.85;;;3.13;;
22922;SDS011;11627;51.322;22.816;2023-05-10T06:45:11;6.55;;;3.33;;
22922;SDS011;11627;51.322;22.816;2023-05-10T06:47:39;7.53;;;3.15;;
22922;SDS011;11627;51.322;22.816;2023-05-10T06:50:06;7.65;;;2.97;;
22922;SDS011;11627;51.322;22.816;2023-05-10T06:52:37;11.73;;;3.85;;
22922;SDS011;11627;51.322;22.816;2023-05-10T06:55:03;8.05;;;3.28;;
22922;SDS011;11627;51.322;22.816;2023-05-10T06:57:30;8.75;;;3.15;;
22922;SDS011;11627;51.322;22.816;2023-05-10T06:59:56;9.02;;;3.28;;
22922;SDS011;11627;51.322;22.816;2023-05-10T07:02:22;7.97;;;2.72;;
22922;SDS011;11627;51.322;22.816;2023-05-10T07:04:49;7.70;;;2.95;;
22922;SDS011;11627;51.322;22.816;2023-05-10T07:07:16;10.40;;;3.42;;
22922;SDS011;11627;51.322;22.816;2023-05-10T07:09:42;9.90;;;3.10;;
22922;SDS011;11627;51.322;22.816;2023-05-10T07:12:08;6.63;;;2.80;;
22922;SDS011;11627;51.322;22.816;2023-05-10T07:14:34;6.38;;;2.83;;
22922;SDS011;11627;51.322;22.816;2023-05-10T07:17:01;9.98;;;2.90;;
22922;SDS011;11627;51.322;22.816;2023-05-10T07:19:27;6.40;;;3.47;;
22922;SDS011;11627;51.322;22.816;2023-05-10T07:21:54;10.63;;;2.55;;
22922;SDS011;11627;51.322;22.816;2023-05-10T07:24:20;6.97;;;2.50;;
22922;SDS011;11627;51.322;22.816;2023-05-10T07:26:46;4.45;;;2.30;;
22922;SDS011;11627;51.322;22.816;2023-05-10T07:29:12;3.65;;;2.33;;
22922;SDS011;11627;51.322;22.816;2023-05-10T07:31:37;7.03;;;2.70;;
22922;SDS011;11627;51.322;22.816;2023-05-10T07:34:03;5.75;;;2.40;;
22922;SDS011;11627;51.322;22.816;2023-05-10T07:36:30;7.18;;;2.50;;
22922;SDS011;11627;51.322;22.816;2023-05-10T07:38:56;3.30;;;2.20;;
22922;SDS011;11627;51.322;22.816;2023-05-10T07:41:22;7.43;;;4.10;;
22922;SDS011;11627;51.322;22.816;2023-05-10T07:43:48;7.40;;;3.53;;
22922;SDS011;11627;51.322;22.816;2023-05-10T07:46:14;4.63;;;3.00;;
22922;SDS011;11627;51.322;22.816;2023-05-10T07:48:40;3.42;;;2.05;;
22922;SDS011;11627;51.322;22.816;2023-05-10T07:51:07;4.47;;;2.50;;
22922;SDS011;11627;51.322;22.816;2023-05-10T07:53:35;3.97;;;2.40;;
22922;SDS011;11627;51.322;22.816;2023-05-10T07:56:48;5.47;;;2.35;;
22922;SDS011;11627;51.322;22.816;2023-05-10T07:58:57;4.68;;;2.22;;
22922;SDS011;11627;51.322;22.816;2023-05-10T08:01:29;4.82;;;2.55;;
22922;SDS011;11627;51.322;22.816;2023-05-10T08:03:56;5.20;;;2.30;;
22922;SDS011;11627;51.322;22.816;2023-05-10T08:06:28;4.72;;;2.45;;
22922;SDS011;11627;51.322;22.816;2023-05-10T08:08:55;5.03;;;2.47;;
22922;SDS011;11627;51.322;22.816;2023-05-10T08:11:21;4.35;;;2.10;;
22922;SDS011;11627;51.322;22.816;2023-05-10T08:13:47;4.32;;;1.92;;
22922;SDS011;11627;51.322;22.816;2023-05-10T08:16:17;5.10;;;1.80;;
22922;SDS011;11627;51.322;22.816;2023-05-10T08:18:43;2.78;;;1.90;;
22922;SDS011;11627;51.322;22.816;2023-05-10T08:21:10;4.78;;;1.80;;
22922;SDS011;11627;51.322;22.816;2023-05-10T08:23:37;2.90;;;1.90;;
22922;SDS011;11627;51.322;22.816;2023-05-10T08:26:05;2.63;;;2.00;;
22922;SDS011;11627;51.322;22.816;2023-05-10T08:28:31;2.78;;;1.70;;
22922;SDS011;11627;51.322;22.816;2023-05-10T08:30:57;2.88;;;1.85;;
22922;SDS011;11627;51.322;22.816;2023-05-10T08:33:23;7.97;;;2.25;;
22922;SDS011;11627;51.322;22.816;2023-05-10T08:35:49;5.07;;;2.20;;
22922;SDS011;11627;51.322;22.816;2023-05-10T08:38:18;7.20;;;2.60;;
22922;SDS011;11627;51.322;22.816;2023-05-10T08:40:44;7.93;;;2.50;;
22922;SDS011;11627;51.322;22.816;2023-05-10T08:43:12;5.10;;;2.30;;
22922;SDS011;11627;51.322;22.816;2023-05-10T08:45:40;5.00;;;2.35;;
22922;SDS011;11627;51.322;22.816;2023-05-10T08:48:10;10.30;;;2.75;;
22922;SDS011;11627;51.322;22.816;2023-05-10T08:50:40;7.53;;;2.10;;
22922;SDS011;11627;51.322;22.816;2023-05-10T08:53:11;6.07;;;2.20;;
22922;SDS011;11627;51.322;22.816;2023-05-10T08:55:55;3.30;;;2.15;;
22922;SDS011;11627;51.322;22.816;2023-05-10T08:58:20;3.60;;;2.60;;
22922;SDS011;11627;51.322;22.816;2023-05-10T09:00:48;4.55;;;1.98;;
22922;SDS011;11627;51.322;22.816;2023-05-10T09:03:18;2.67;;;2.20;;
22922;SDS011;11627;51.322;22.816;2023-05-10T09:05:43;9.20;;;2.22;;
22922;SDS011;11627;51.322;22.816;2023-05-10T09:08:10;8.43;;;2.47;;
22922;SDS011;11627;51.322;22.816;2023-05-10T09:10:38;2.78;;;1.88;;
22922;SDS011;11627;51.322;22.816;2023-05-10T09:13:05;4.68;;;2.08;;
22922;SDS011;11627;51.322;22.816;2023-05-10T09:15:34;4.07;;;2.25;;
22922;SDS011;11627;51.322;22.816;2023-05-10T09:18:01;3.67;;;1.88;;
22922;SDS011;11627;51.322;22.816;2023-05-10T09:20:28;3.60;;;1.92;;
22922;SDS011;11627;51.322;22.816;2023-05-10T09:22:55;4.68;;;2.17;;
22922;SDS011;11627;51.322;22.816;2023-05-10T09:25:32;5.78;;;2.40;;
22922;SDS011;11627;51.322;22.816;2023-05-10T09:27:59;5.15;;;2.00;;
22922;SDS011;11627;51.322;22.816;2023-05-10T09:30:27;2.47;;;2.00;;
22922;SDS011;11627;51.322;22.816;2023-05-10T09:32:58;4.55;;;1.77;;
22922;SDS011;11627;51.322;22.816;2023-05-10T09:35:27;3.05;;;1.92;;
22922;SDS011;11627;51.322;22.816;2023-05-10T09:37:55;5.95;;;2.15;;
22922;SDS011;11627;51.322;22.816;2023-05-10T09:40:24;6.05;;;1.83;;
22922;SDS011;11627;51.322;22.816;2023-05-10T09:42:53;4.13;;;2.05;;
22922;SDS011;11627;51.322;22.816;2023-05-10T09:45:31;2.47;;;1.80;;
22922;SDS011;11627;51.322;22.816;2023-05-10T09:48:01;4.60;;;2.08;;
22922;SDS011;11627;51.322;22.816;2023-05-10T09:50:28;6.32;;;1.95;;
22922;SDS011;11627;51.322;22.816;2023-05-10T09:55:42;3.20;;;2.08;;
22922;SDS011;11627;51.322;22.816;2023-05-10T09:58:11;3.75;;;1.63;;
22922;SDS011;11627;51.322;22.816;2023-05-10T10:00:40;5.05;;;1.80;;
22922;SDS011;11627;51.322;22.816;2023-05-10T10:03:14;5.88;;;1.90;;
22922;SDS011;11627;51.322;22.816;2023-05-10T10:05:42;2.70;;;1.80;;
22922;SDS011;11627;51.322;22.816;2023-05-10T10:08:11;10.70;;;1.88;;
22922;SDS011;11627;51.322;22.816;2023-05-10T10:10:37;2.67;;;1.75;;
22922;SDS011;11627;51.322;22.816;2023-05-10T10:13:06;8.05;;;1.80;;
22922;SDS011;11627;51.322;22.816;2023-05-10T10:15:35;4.60;;;2.00;;
22922;SDS011;11627;51.322;22.816;2023-05-10T10:18:03;2.92;;;1.58;;
22922;SDS011;11627;51.322;22.816;2023-05-10T10:20:32;2.92;;;2.05;;
22922;SDS011;11627;51.322;22.816;2023-05-10T10:22:58;3.22;;;1.90;;
22922;SDS011;11627;51.322;22.816;2023-05-10T10:25:25;6.88;;;1.95;;
22922;SDS011;11627;51.322;22.816;2023-05-10T10:30:31;6.07;;;2.15;;
22922;SDS011;11627;51.322;22.816;2023-05-10T10:36:12;3.70;;;1.70;;
22922;SDS011;11627;51.322;22.816;2023-05-10T10:54:52;2.80;;;2.10;;
22922;SDS011;11627;51.322;22.816;2023-05-10T10:57:26;2.13;;;1.60;;
22922;SDS011;11627;51.322;22.816;2023-05-10T11:02:48;3.10;;;1.60;;
22922;SDS011;11627;51.322;22.816;2023-05-10T11:07:53;4.28;;;1.70;;
22922;SDS011;11627;51.322;22.816;2023-05-10T11:10:23;1.85;;;1.65;;
22922;SDS011;11627;51.322;22.816;2023-05-10T11:12:50;4.60;;;1.60;;
22922;SDS011;11627;51.322;22.816;2023-05-10T11:15:18;4.18;;;1.80;;
22922;SDS011;11627;51.322;22.816;2023-05-10T11:17:45;2.97;;;1.83;;
22922;SDS011;11627;51.322;22.816;2023-05-10T11:20:18;1.98;;;1.42;;
22922;SDS011;11627;51.322;22.816;2023-05-10T11:23:10;4.25;;;1.42;;
22922;SDS011;11627;51.322;22.816;2023-05-10T11:25:42;7.68;;;1.80;;
22922;SDS011;11627;51.322;22.816;2023-05-10T11:28:09;2.05;;;1.73;;
22922;SDS011;11627;51.322;22.816;2023-05-10T11:30:40;3.42;;;1.65;;
22922;SDS011;11627;51.322;22.816;2023-05-10T11:33:07;2.35;;;1.60;;
22922;SDS011;11627;51.322;22.816;2023-05-10T11:35:38;2.45;;;1.65;;
22922;SDS011;11627;51.322;22.816;2023-05-10T11:38:09;7.97;;;1.85;;
22922;SDS011;11627;51.322;22.816;2023-05-10T11:40:38;4.75;;;1.60;;
22922;SDS011;11627;51.322;22.816;2023-05-10T11:43:05;2.22;;;1.73;;
22922;SDS011;11627;51.322;22.816;2023-05-10T11:45:34;2.25;;;1.60;;
22922;SDS011;11627;51.322;22.816;2023-05-10T11:48:00;2.65;;;1.80;;
22922;SDS011;11627;51.322;22.816;2023-05-10T11:50:27;3.63;;;1.48;;
22922;SDS011;11627;51.322;22.816;2023-05-10T11:52:54;1.70;;;1.25;;
22922;SDS011;11627;51.322;22.816;2023-05-10T11:55:21;3.60;;;1.63;;
22922;SDS011;11627;51.322;22.816;2023-05-10T11:57:53;3.53;;;1.83;;
22922;SDS011;11627;51.322;22.816;2023-05-10T12:00:19;2.03;;;1.40;;
22922;SDS011;11627;51.322;22.816;2023-05-10T12:02:46;3.92;;;1.75;;
22922;SDS011;11627;51.322;22.816;2023-05-10T12:05:13;3.38;;;1.60;;
22922;SDS011;11627;51.322;22.816;2023-05-10T12:07:39;11.30;;;1.92;;
22922;SDS011;11627;51.322;22.816;2023-05-10T12:10:05;3.70;;;1.48;;
22922;SDS011;11627;51.322;22.816;2023-05-10T12:12:44;5.40;;;1.83;;
22922;SDS011;11627;51.322;22.816;2023-05-10T12:15:21;4.57;;;1.70;;
22922;SDS011;11627;51.322;22.816;2023-05-10T12:17:51;1.77;;;1.40;;
22922;SDS011;11627;51.322;22.816;2023-05-10T12:20:20;4.15;;;1.60;;
22922;SDS011;11627;51.322;22.816;2023-05-10T12:22:49;3.78;;;1.80;;
22922;SDS011;11627;51.322;22.816;2023-05-10T12:25:20;3.28;;;1.50;;
22922;SDS011;11627;51.322;22.816;2023-05-10T12:27:58;2.60;;;1.40;;
22922;SDS011;11627;51.322;22.816;2023-05-10T12:30:30;5.40;;;1.92;;
22922;SDS011;11627;51.322;22.816;2023-05-10T12:33:02;5.50;;;1.55;;
22922;SDS011;11627;51.322;22.816;2023-05-10T12:35:51;2.45;;;1.75;;
22922;SDS011;11627;51.322;22.816;2023-05-10T12:41:10;1.60;;;1.50;;
22922;SDS011;11627;51.322;22.816;2023-05-10T12:43:43;4.35;;;1.70;;
22922;SDS011;11627;51.322;22.816;2023-05-10T12:46:12;2.45;;;1.50;;
22922;SDS011;11627;51.322;22.816;2023-05-10T12:48:39;4.57;;;1.52;;
22922;SDS011;11627;51.322;22.816;2023-05-10T12:51:06;3.05;;;1.50;;
22922;SDS011;11627;51.322;22.816;2023-05-10T12:53:37;4.10;;;1.77;;
22922;SDS011;11627;51.322;22.816;2023-05-10T12:56:05;5.28;;;1.65;;
22922;SDS011;11627;51.322;22.816;2023-05-10T12:58:31;4.30;;;1.55;;
22922;SDS011;11627;51.322;22.816;2023-05-10T13:00:57;2.28;;;1.95;;
22922;SDS011;11627;51.322;22.816;2023-05-10T13:03:27;5.38;;;1.70;;
22922;SDS011;11627;51.322;22.816;2023-05-10T13:05:53;3.63;;;1.42;;
22922;SDS011;11627;51.322;22.816;2023-05-10T13:08:24;4.50;;;1.60;;
22922;SDS011;11627;51.322;22.816;2023-05-10T13:10:51;2.40;;;1.77;;
22922;SDS011;11627;51.322;22.816;2023-05-10T13:13:18;3.47;;;1.85;;
22922;SDS011;11627;51.322;22.816;2023-05-10T13:15:45;3.92;;;1.80;;
22922;SDS011;11627;51.322;22.816;2023-05-10T13:18:11;2.97;;;1.50;;
22922;SDS011;11627;51.322;22.816;2023-05-10T13:20:38;4.38;;;1.55;;
22922;SDS011;11627;51.322;22.816;2023-05-10T13:23:05;2.75;;;1.58;;
22922;SDS011;11627;51.322;22.816;2023-05-10T13:25:33;4.47;;;1.63;;
22922;SDS011;11627;51.322;22.816;2023-05-10T13:27:59;5.07;;;1.80;;
22922;SDS011;11627;51.322;22.816;2023-05-10T13:30:25;6.25;;;1.60;;
22922;SDS011;11627;51.322;22.816;2023-05-10T13:32:52;4.78;;;1.80;;
22922;SDS011;11627;51.322;22.816;2023-05-10T13:35:19;2.53;;;1.60;;
22922;SDS011;11627;51.322;22.816;2023-05-10T13:37:48;4.90;;;2.25;;
22922;SDS011;11627;51.322;22.816;2023-05-10T13:40:15;3.15;;;1.50;;
22922;SDS011;11627;51.322;22.816;2023-05-10T13:42:41;1.83;;;1.55;;
22922;SDS011;11627;51.322;22.816;2023-05-10T13:45:09;2.83;;;1.67;;
22922;SDS011;11627;51.322;22.816;2023-05-10T13:47:38;4.32;;;1.80;;
22922;SDS011;11627;51.322;22.816;2023-05-10T13:50:06;1.55;;;1.40;;
22922;SDS011;11627;51.322;22.816;2023-05-10T13:52:33;2.83;;;1.70;;
22922;SDS011;11627;51.322;22.816;2023-05-10T13:54:59;4.28;;;1.75;;
22922;SDS011;11627;51.322;22.816;2023-05-10T13:57:26;2.67;;;1.80;;
22922;SDS011;11627;51.322;22.816;2023-05-10T13:59:53;1.92;;;1.70;;
22922;SDS011;11627;51.322;22.816;2023-05-10T14:02:22;1.80;;;1.33;;
22922;SDS011;11627;51.322;22.816;2023-05-10T14:04:50;2.72;;;1.48;;
22922;SDS011;11627;51.322;22.816;2023-05-10T14:07:16;4.45;;;1.48;;
22922;SDS011;11627;51.322;22.816;2023-05-10T14:09:42;2.63;;;1.60;;
22922;SDS011;11627;51.322;22.816;2023-05-10T14:12:10;6.22;;;1.98;;
22922;SDS011;11627;51.322;22.816;2023-05-10T14:14:36;4.45;;;1.83;;
22922;SDS011;11627;51.322;22.816;2023-05-10T14:17:03;2.88;;;1.67;;
22922;SDS011;11627;51.322;22.816;2023-05-10T14:19:31;4.78;;;1.83;;
22922;SDS011;11627;51.322;22.816;2023-05-10T14:21:58;3.97;;;1.65;;
22922;SDS011;11627;51.322;22.816;2023-05-10T14:24:26;2.17;;;1.58;;
22922;SDS011;11627;51.322;22.816;2023-05-10T14:26:52;3.88;;;1.38;;
22922;SDS011;11627;51.322;22.816;2023-05-10T14:29:19;4.20;;;1.65;;
22922;SDS011;11627;51.322;22.816;2023-05-10T14:31:45;2.88;;;1.50;;
22922;SDS011;11627;51.322;22.816;2023-05-10T14:34:12;2.80;;;1.42;;
22922;SDS011;11627;51.322;22.816;2023-05-10T14:36:38;3.78;;;1.77;;
22922;SDS011;11627;51.322;22.816;2023-05-10T14:39:05;2.15;;;1.45;;
22922;SDS011;11627;51.322;22.816;2023-05-10T14:41:33;3.53;;;1.25;;
22922;SDS011;11627;51.322;22.816;2023-05-10T14:43:59;1.98;;;1.60;;
22922;SDS011;11627;51.322;22.816;2023-05-10T14:46:28;3.67;;;1.63;;
22922;SDS011;11627;51.322;22.816;2023-05-10T14:48:55;4.00;;;2.00;;
22922;SDS011;11627;51.322;22.816;2023-05-10T14:51:21;2.25;;;1.70;;
22922;SDS011;11627;51.322;22.816;2023-05-10T14:53:48;4.93;;;1.70;;
22922;SDS011;11627;51.322;22.816;2023-05-10T14:56:16;6.18;;;1.48;;
22922;SDS011;11627;51.322;22.816;2023-05-10T14:58:44;3.47;;;1.70;;
22922;SDS011;11627;51.322;22.816;2023-05-10T15:01:09;2.50;;;1.80;;
22922;SDS011;11627;51.322;22.816;2023-05-10T15:03:36;3.05;;;1.60;;
22922;SDS011;11627;51.322;22.816;2023-05-10T15:06:03;4.70;;;1.70;;
22922;SDS011;11627;51.322;22.816;2023-05-10T15:08:29;4.43;;;1.77;;
22922;SDS011;11627;51.322;22.816;2023-05-10T15:10:56;2.47;;;1.50;;
22922;SDS011;11627;51.322;22.816;2023-05-10T15:13:25;4.93;;;1.65;;
22922;SDS011;11627;51.322;22.816;2023-05-10T15:15:51;2.83;;;1.65;;
22922;SDS011;11627;51.322;22.816;2023-05-10T15:18:18;2.50;;;1.70;;
22922;SDS011;11627;51.322;22.816;2023-05-10T15:20:45;3.33;;;2.67;;
22922;SDS011;11627;51.322;22.816;2023-05-10T15:23:11;2.78;;;1.70;;
22922;SDS011;11627;51.322;22.816;2023-05-10T15:25:37;2.88;;;1.77;;
22922;SDS011;11627;51.322;22.816;2023-05-10T15:28:03;3.03;;;1.90;;